Impacts METAR Board
IDs:

KSFO - San Francisco Intl, CA, US

Updated at: 2100 UTC 06 Dec 2019
Potential Impact None Slight Moderate High
Time 06/09Z 06/10Z 06/11Z 06/12Z 06/13Z 06/14Z 06/15Z 06/16Z 06/17Z 06/18Z 06/19Z 06/20Z 06/21Z
Temp58 56 55 56 56 55 55 55 58 59 60 60 65
Dewpt52 52 51 51 51 51 51 51 51 51 51 50 48
Altim30.04 30.03 30.03 30.03 30.02 30.01 30.02 30.02 30.02 30.02 30.00 29.97 29.94
VIS10 10 10 10 10 10 10 10 10 10 10 10 10
CIG37 37 45 45 55 38 46 50 -- -- -- 41 38
CoverBKNBKNBKNBKNBKNBKNBKNBKNSCTSCTSCTBKNBKN
FltCatVFRVFRVFRVFRVFRVFRVFRVFRVFRVFRVFRVFRVFR
WX--------------------------
WDir0401400000120110100100110140
WSpd0 3 3 0 0 0 0 7 11 13 12 10 17
WGst-- -- -- -- -- -- -- -- 18 -- -- -- --
Raw hourly METARs
KSFO 060856Z 00000KT 10SM FEW031 BKN037 BKN048 14/11 A3004 RMK AO2 SLP171 T01440111 51004 $
KSFO 060956Z 04003KT 10SM FEW031 BKN037 13/11 A3003 RMK AO2 SLP170 T01330111 $
KSFO 061056Z 14003KT 10SM SCT035 BKN045 13/11 A3003 RMK AO2 SLP168 T01280106 $
KSFO 061156Z 00000KT 10SM FEW035 BKN045 13/11 A3003 RMK AO2 SLP167 T01330106 10144 20128 56003 $
KSFO 061256Z 00000KT 10SM FEW045 BKN055 13/11 A3002 RMK AO2 SLP164 T01330106 $
KSFO 061356Z 00000KT 10SM BKN038 BKN055 13/11 A3001 RMK AO2 SLP162 T01280106 $
KSFO 061456Z 00000KT 10SM SCT035 BKN046 BKN055 13/11 A3002 RMK AO2 SLP165 T01280106 55002 $
KSFO 061556Z 12007KT 10SM FEW034 BKN050 13/11 A3002 RMK AO2 SLP165 T01280106
KSFO 061656Z 11011G18KT 10SM FEW039 SCT049 14/11 A3002 RMK AO2 SLP166 T01440106
KSFO 061756Z 10013KT 10SM FEW039 SCT049 15/11 A3002 RMK AO2 SLP164 T01500106 10150 20128 58001
KSFO 061856Z 10012KT 10SM SCT039 16/11 A3000 RMK AO2 SLP159 T01560106
KSFO 061956Z 11010KT 10SM BKN041 BKN055 16/10 A2997 RMK AO2 SLP147 T01560100
KSFO 062056Z 14017KT 10SM BKN038 18/09 A2994 RMK AO2 SLP140 T01830089 58024



Page loaded:  21:30 UTC  |   01:30 PM Pacific  |   02:30 PM Mountain  |   03:30 PM Central  |   04:30 PM Eastern

 

ADVISORIES

FORECASTS

FORECASTS

OBSERVATIONS

USER TOOLS

ABOUT US